Empalme Villa Constitucion, Argentina
Current Conditions -  °F | °C
As of 5:00 AM on Thursday 27 Nov 2014 (Local Time) from SAAR Reporting Station
Clear Clear  
Wind Chill: 13°   Ceiling: Unl
Heat Index: 13°   Visibility: 6mi
Dew Point: 11°   Wind: 0mph
Humidity: 88%   Direction: NA
Pressure: 29.97"   Gusts: NA
Location:  33.27°S, 60.38°W
Report Text: SAAR 270800Z 00000KT CAVOK 13/11 Q1015
Loading
Personal Weather Stations






























Interactive Weather Map New forecast layout! Learn more

10-Day Weather Forecast

Advertisements
Track Severe Weather on mobile